Flight Track Log - Related Links

Times and Time Zones

All times are in EDT time to prevent confusion due to time zone crossing. See the UAL1519 flight status page for this flight to view local times or setup timezone preferences in your user account.

Time Position Orientation Groundspeed Altitude Reporting Facility
EDT Latitude Longitude Course Direction KTS MPH feet Rate Location/Type
Sun 09:45:41 AM 40.7997 -74.1128 110° East 225 259 5,400  Level New Center
Sun 09:46:00 AM 40.3128 -74.1558 161° South  Level FlightAware
Sun 09:46:42 AM 40.7794 -74.1692 245° Southwest 233 268 6,600  Level New Center
Sun 09:47:00 AM 40.1769 -74.1500 180° South  Level FlightAware
Sun 09:47:16 AM 40.7333 -74.2000 207° Southwest 240 276 9,200  Level New TRACON
Sun 09:48:00 AM 40.0695 -74.1028 143° Southeast  Level FlightAware
Sun 09:49:00 AM 40.0215 -73.9399 110° East  Level FlightAware
Sun 09:49:42 AM 40.5556 -74.2728 197° South 278 320 15,400  Level New Center
Sun 09:50:40 AM 40.4731 -74.2386 163° South 312 359 18,300 2,874 Climbing New Center
Sun 09:51:41 AM 40.3822 -74.1442 142° Southeast 341 392 21,100 2,281 Climbing New Center
Sun 09:52:41 AM 40.3236 -74.0025 118° Southeast 374 430 22,900 1,576 Climbing New Center
Sun 09:53:39 AM 40.2608 -73.8553 119° Southeast 419 482 24,200 1,513 Climbing New Center
Sun 09:54:40 AM 40.1911 -73.7300 126° Southeast 451 519 25,900 1,700 Climbing New Center
Sun 09:55:39 AM 40.1028 -73.5958 131° Southeast 475 547 27,600 1,388 Climbing New Center
Sun 09:56:41 AM 40.0081 -73.4564 132° Southeast 496 571 28,700 700 Climbing New Center
Sun 09:57:39 AM 39.9072 -73.3039 131° Southeast 523 602 29,000 149 Climbing New Center
Sun 09:58:42 AM 39.8103 -73.1597 131° Southeast 531 611 29,000  Level New Center
Sun 09:59:41 AM 39.7131 -73.0161 131° Southeast 536 617 29,000 51 Level New Center
Sun 10:00:40 AM 39.6117 -72.8700 132° Southeast 531 611 29,100 559 Climbing New Center
Sun 10:01:39 AM 39.5100 -72.7189 131° Southeast 537 618 30,100 1,041 Climbing New Center
Sun 10:02:41 AM 39.4083 -72.5656 131° Southeast 548 631 31,200 1,450 Climbing New Center
Sun 10:03:39 AM 39.3022 -72.4153 132° Southeast 563 648 33,000 1,866 Climbing New Center
Sun 10:04:40 AM 39.1958 -72.2600 131° Southeast 568 654 34,900 1,869 Climbing New Center
Sun 10:05:41 AM 39.0933 -72.1133 132° Southeast 563 648 36,800 2,017 Climbing New Center
Sun 10:06:39 AM 38.9947 -71.9728 132° Southeast 548 631 38,900 1,109 Climbing New Center
Sun 10:07:40 AM 38.9003 -71.8375 132° Southeast 529 609 39,000 50 Climbing New Center
Sun 10:08:40 AM 38.8036 -71.6975 132° Southeast 524 603 39,000  Level New Center
Sun 10:09:42 AM 38.7025 -71.5606 133° Southeast 524 603 39,000  Level New Center
Sun 10:10:39 AM 38.6053 -71.4239 132° Southeast 524 603 39,000  Level New Center
Sun 10:11:39 AM 38.5058 -71.2822 132° Southeast 532 612 39,000  Level New Center
Sun 10:12:41 AM 38.3961 -71.1331 133° Southeast 521 600 39,000  Level New Center
Sun 10:13:39 AM 38.3192 -71.0242 132° Southeast 521 600 39,000  Level New Center
Sun 10:14:39 AM 38.2006 -70.8572 132° Southeast 526 605 39,000  Level New Center
Sun 10:15:40 AM 38.1028 -70.7250 133° Southeast 521 600 39,000  Level New Center
Sun 10:16:41 AM 38.0044 -70.5881 132° Southeast 521 600 39,000  Level New Center
Sun 10:17:39 AM 37.8792 -70.5067 153° Southeast 510 587 39,000  Level New Center
Sun 10:32:07 AM 36.1667 -69.4500 168° South 486 559 39,000  Level New Oceanic
Sun 10:33:00 AM 36.0283 -69.4165 167° South  Level FlightAware
Sun 10:34:00 AM 35.8975 -69.3807 167° South  Level FlightAware
Sun 10:35:00 AM 35.7667 -69.3450 168° South  Level FlightAware
Sun 10:36:00 AM 35.6359 -69.3094 168° South  Level FlightAware
Sun 10:37:00 AM 35.5051 -69.2739 168° South  Level FlightAware
Sun 10:38:00 AM 35.2408 -69.2025 168° South 486 559 39,000  Level FlightAware
Sun 10:39:00 AM 35.1085 -69.1676 168° South 486 559 39,000  Level FlightAware
Sun 10:40:00 AM 34.9762 -69.1328 168° South 486 559 39,000  Level FlightAware
Sun 10:41:00 AM 34.8438 -69.0982 168° South 486 559 39,000  Level FlightAware
Sun 10:42:00 AM 34.7115 -69.0636 168° South 486 559 39,000  Level FlightAware
Sun 10:43:00 AM 34.5791 -69.0291 168° South 486 559 39,000  Level FlightAware
Sun 10:44:00 AM 34.4468 -68.9948 168° South 486 559 39,000  Level FlightAware
Sun 10:45:00 AM 34.3144 -68.9606 168° South 486 559 39,000  Level FlightAware
Sun 10:46:00 AM 34.1820 -68.9265 168° South 486 559 39,000  Level FlightAware
Sun 10:47:00 AM 34.0496 -68.8924 168° South 486 559 39,000  Level FlightAware
Sun 10:48:00 AM 33.9172 -68.8585 168° South 486 559 39,000  Level FlightAware
Sun 10:49:00 AM 33.7848 -68.8247 168° South 486 559 39,000  Level FlightAware
Sun 10:50:00 AM 33.6524 -68.7910 168° South 486 559 39,000  Level FlightAware
Sun 10:51:00 AM 33.5200 -68.7574 168° South 486 559 39,000  Level FlightAware
Sun 10:52:00 AM 33.3876 -68.7239 168° South 486 559 39,000  Level FlightAware
Sun 10:53:00 AM 33.2551 -68.6906 168° South 486 559 39,000  Level FlightAware
Sun 10:54:00 AM 33.1227 -68.6573 168° South 486 559 39,000  Level FlightAware
Sun 10:55:00 AM 32.9902 -68.6241 168° South 486 559 39,000  Level FlightAware
Sun 10:56:00 AM 32.8577 -68.5910 168° South 486 559 39,000  Level FlightAware
Sun 10:57:00 AM 32.7253 -68.5580 168° South 486 559 39,000  Level FlightAware
Sun 10:58:00 AM 32.5928 -68.5251 168° South 486 559 39,000  Level FlightAware
Sun 10:59:00 AM 32.4603 -68.4923 168° South 486 559 39,000  Level FlightAware
Sun 11:00:00 AM 32.3278 -68.4596 168° South 486 559 39,000  Level FlightAware
Sun 11:01:00 AM 32.1953 -68.4270 168° South 486 559 39,000  Level FlightAware
Sun 11:02:00 AM 32.0627 -68.3945 168° South 486 559 39,000  Level FlightAware
Sun 11:03:00 AM 31.9302 -68.3621 168° South 486 559 39,000  Level FlightAware
Sun 11:04:00 AM 31.7977 -68.3298 168° South 486 559 39,000  Level FlightAware
Sun 11:05:00 AM 31.6651 -68.2975 168° South 486 559 39,000  Level FlightAware
Sun 11:06:00 AM 31.5326 -68.2654 168° South 486 559 39,000  Level FlightAware
Sun 11:07:00 AM 31.4000 -68.2333 169° South 486 559 39,000  Level FlightAware
Sun 11:08:00 AM 31.2768 -68.2040 169° South 486 559 39,000  Level FlightAware
Sun 11:09:00 AM 31.1535 -68.1748 169° South 486 559 39,000  Level FlightAware
Sun 11:10:00 AM 31.0303 -68.1457 169° South 486 559 39,000  Level FlightAware
Sun 11:11:00 AM 30.9070 -68.1166 169° South 486 559 39,000  Level FlightAware
Sun 11:12:00 AM 30.7838 -68.0876 169° South 486 559 39,000  Level FlightAware
Sun 11:13:00 AM 30.6605 -68.0587 169° South 486 559 39,000  Level FlightAware
Sun 11:14:00 AM 30.5373 -68.0298 169° South 486 559 39,000  Level FlightAware
Sun 11:15:00 AM 30.4140 -68.0011 169° South 486 559 39,000  Level FlightAware
Sun 11:16:00 AM 30.2907 -67.9724 169° South 486 559 39,000  Level FlightAware
Sun 11:17:00 AM 30.1674 -67.9437 169° South 486 559 39,000  Level FlightAware
Sun 11:18:00 AM 30.0441 -67.9152 169° South 486 559 39,000  Level FlightAware
Sun 11:19:00 AM 29.9208 -67.8867 169° South 486 559 39,000  Level FlightAware
Sun 11:20:00 AM 29.7975 -67.8583 169° South 486 559 39,000  Level FlightAware
Sun 11:21:00 AM 29.6742 -67.8299 169° South 486 559 39,000  Level FlightAware
Sun 11:22:00 AM 29.5509 -67.8017 169° South 486 559 39,000  Level FlightAware
Sun 11:23:00 AM 29.4276 -67.7735 169° South 486 559 39,000  Level FlightAware
Sun 11:24:00 AM 29.3042 -67.7453 169° South 486 559 39,000  Level FlightAware
Sun 11:25:00 AM 29.1809 -67.7173 169° South 486 559 39,000  Level FlightAware
Sun 11:26:00 AM 29.0576 -67.6893 169° South 486 559 39,000  Level FlightAware
Sun 11:27:00 AM 28.9342 -67.6613 169° South 486 559 39,000  Level FlightAware
Sun 11:28:00 AM 28.8109 -67.6335 169° South 486 559 39,000  Level FlightAware
Sun 11:29:00 AM 28.6875 -67.6057 169° South 486 559 39,000  Level FlightAware
Sun 11:30:00 AM 28.5641 -67.5779 169° South 486 559 39,000  Level FlightAware
Sun 11:31:00 AM 28.4408 -67.5502 169° South 486 559 39,000  Level FlightAware
Sun 11:32:00 AM 28.3174 -67.5226 169° South 486 559 39,000  Level FlightAware
Sun 11:33:00 AM 28.1940 -67.4951 169° South 486 559 39,000  Level FlightAware
Sun 11:34:00 AM 28.0706 -67.4676 169° South 486 559 39,000  Level FlightAware
Sun 11:35:00 AM 27.9472 -67.4402 169° South 486 559 39,000  Level FlightAware
Sun 11:36:00 AM 27.8238 -67.4128 169° South 486 559 39,000  Level FlightAware
Sun 11:37:00 AM 27.7004 -67.3856 169° South 486 559 39,000  Level FlightAware
Sun 11:38:00 AM 27.5770 -67.3583 169° South 486 559 39,000  Level FlightAware
Sun 11:39:00 AM 27.4536 -67.3311 169° South 486 559 39,000  Level FlightAware
Sun 11:40:00 AM 27.3302 -67.3040 169° South 486 559 39,000  Level FlightAware
Sun 11:41:00 AM 27.2068 -67.2770 169° South 486 559 39,000  Level FlightAware
Sun 11:41:40 AM 27.0833 -67.2500 158° South 518 596 39,000  Level New Oceanic
Sun 12:14:53 PM 22.4333 -65.2833 166° South 590 679 39,000  Level San Center
Sun 12:15:00 PM 22.3701 -65.2436 159° South 518 596 39,000  Level FlightAware
Sun 12:15:53 PM 22.3000 -65.2333 161° South 540 621 39,000  Level San Center
Sun 12:16:00 PM 22.2351 -65.1884 159° South 518 596 39,000  Level FlightAware
Sun 12:16:53 PM 22.1667 -65.1667 155° Southeast 610 702 39,000  Level San Center
Sun 12:17:00 PM 22.1000 -65.1333 166° South 518 596 39,000  Level FlightAware
Sun 12:17:54 PM 22.0333 -65.1167 161° South 570 656 39,000  Level San Center
Sun 12:18:00 PM 21.9908 -65.1035 166° South 518 596 39,000  Level FlightAware
Sun 12:18:54 PM 21.9000 -65.0833 167° South 600 690 39,000  Level San Center
Sun 12:19:00 PM 21.8815 -65.0738 166° South 518 596 39,000  Level FlightAware
Sun 12:19:54 PM 21.7667 -65.0667 173° South 480 552 39,000  Level San Center
Sun 12:20:00 PM 21.7723 -65.0440 166° South 518 596 39,000  Level FlightAware
Sun 12:20:55 PM 21.6333 -65.0167 161° South 590 679 39,000  Level San Center
Sun 12:21:55 PM 21.5000 -64.9667 161° South 540 621 39,000  Level San Center
Sun 12:22:55 PM 21.3667 -64.9667 180° South 540 621 39,000  Level San Center
Sun 12:23:56 PM 21.2333 -64.9833 187° South 460 529 39,000  Level San Center
Sun 12:24:56 PM 21.1000 -65.0000 187° South 470 541 39,000  Level San Center
Sun 12:25:56 PM 20.9833 -65.0167 188° South 460 529 39,000 -99 Level San Center
Sun 12:26:57 PM 20.8500 -65.0500 193° South 440 506 38,800 -595 Descending San Center
Sun 12:27:57 PM 20.7167 -65.0667 187° South 460 529 37,800 -992 Descending San Center
Sun 12:28:58 PM 20.5833 -65.0833 187° South 470 541 36,800 -942 Descending San Center
Sun 12:29:58 PM 20.4667 -65.1000 188° South 470 541 35,900 -900 Descending San Center
Sun 12:30:58 PM 20.3333 -65.1167 187° South 460 529 35,000 -893 Descending San Center
Sun 12:31:59 PM 20.2000 -65.1333 187° South 470 541 34,100 -992 Descending San Center
Sun 12:32:59 PM 20.0667 -65.1500 187° South 470 541 33,000 -550 Descending San Center
Sun 12:33:59 PM 19.9500 -65.1667 188° South 470 541 33,000 -50 Level San Center
Sun 12:35:00 PM 19.8167 -65.2000 193° South 470 541 32,900 -1,190 Descending San Center
Sun 12:36:00 PM 19.6833 -65.2167 187° South 470 541 30,600 -2,550 Descending San Center
Sun 12:37:00 PM 19.5500 -65.2333 187° South 460 529 27,800 -2,628 Descending San Center
Sun 12:38:01 PM 19.4333 -65.2500 188° South 450 518 25,300 -2,430 Descending San Center
Sun 12:39:01 PM 19.3000 -65.2667 187° South 440 506 22,900 -2,380 Descending San Center
Sun 12:40:02 PM 19.1833 -65.2833 188° South 420 483 20,500 -2,380 Descending San Center
Sun 12:41:02 PM 19.0667 -65.3000 188° South 400 460 18,100 -2,150 Descending San Center
Sun 12:42:02 PM 18.9500 -65.3000 180° South 390 449 16,200 -2,331 Descending San Center
Sun 12:43:03 PM 18.8500 -65.2833 171° South 370 426 13,400 -2,826 Descending San Center
Sun 12:44:03 PM 18.7500 -65.2667 171° South 360 414 10,500 -2,300 Descending San Center
Sun 12:45:03 PM 18.6667 -65.2500 169° South 350 403 8,800 -1,736 Descending San Center
Sun 12:46:04 PM 18.5833 -65.2333 169° South 290 334 7,000 -1,785 Descending San Center
Sun 12:47:04 PM 18.5000 -65.2167 169° South 280 322 5,200 -1,636 Descending San Center
Sun 12:48:05 PM 18.4333 -65.2000 167° South 270 311 3,700 -1,190 Descending San Center
Sun 12:49:05 PM 18.3667 -65.1833 167° South 260 299 2,800 -450 Descending San Center
Sun 12:50:05 PM 18.3000 -65.1667 167° South 230 265 2,800 -149 Level San Center
Sun 12:51:06 PM 18.3000 -65.1167 90° East 210 242 2,500 -397 Descending San Center
Sun 12:52:06 PM 18.3333 -65.0833 44° Northeast 170 196 2,000 -650 Descending San Center
Sun 12:53:06 PM 18.3167 -65.0333 109° East 140 161 1,200 -750 Descending San Center
Sun 12:54:06 PM 18.3333 -65.0000 62° Northeast 150 173 500 -700 Descending San Center

Login

Don't have an account? Register now (free) for customized features, flight alerts, and more!